Terminal Aerodrome Forecast
Issued by NWS

Home | Current Version | Previous Version | Text Only | Print | Product List | Glossary On
Versions: 1 2 3 4 5 6 7 8 9 10 11 12 13 14 15 16
594
FTUS45 KRIW 251121
TAFCPR
TAF
KCPR 251121Z 2512/2612 23013KT P6SM SCT060 BKN080
     FM251600 23020G30KT P6SM SCT100 BKN150
     FM260100 23013G19KT P6SM SCT090=

USA.gov is the U.S. government's official web portal to all federal, state and local government web resources and services.